sensor_id;sensor_type;location;lat;lon;timestamp;pressure;altitude;pressure_sealevel;temperature;humidity
14790;BME280;7486;51.010;10.366;2023-02-17T00:03:45;98818.66;;;2.95;86.54
14790;BME280;7486;51.010;10.366;2023-02-17T00:06:13;98811.19;;;3.09;86.03
14790;BME280;7486;51.010;10.366;2023-02-17T00:08:40;98814.03;;;3.16;86.41
14790;BME280;7486;51.010;10.366;2023-02-17T00:11:06;98805.91;;;3.19;85.75
14790;BME280;7486;51.010;10.366;2023-02-17T00:13:35;98791.25;;;2.99;86.18
14790;BME280;7486;51.010;10.366;2023-02-17T00:16:10;98744.81;;;2.74;86.84
14790;BME280;7486;51.010;10.366;2023-02-17T00:18:37;98796.53;;;2.89;88.03
14790;BME280;7486;51.010;10.366;2023-02-17T00:21:15;98794.31;;;2.85;89.48
14790;BME280;7486;51.010;10.366;2023-02-17T00:23:43;98797.09;;;2.83;89.76
14790;BME280;7486;51.010;10.366;2023-02-17T00:26:10;98772.91;;;2.72;89.88
14790;BME280;7486;51.010;10.366;2023-02-17T00:28:37;98788.25;;;2.94;90.13
14790;BME280;7486;51.010;10.366;2023-02-17T00:31:06;98792.31;;;3.06;89.50
14790;BME280;7486;51.010;10.366;2023-02-17T00:33:33;98768.56;;;2.90;90.09
14790;BME280;7486;51.010;10.366;2023-02-17T00:36:09;98783.97;;;2.93;90.57
14790;BME280;7486;51.010;10.366;2023-02-17T00:38:36;98785.84;;;3.10;90.06
14790;BME280;7486;51.010;10.366;2023-02-17T00:41:03;98786.09;;;3.16;90.05
14790;BME280;7486;51.010;10.366;2023-02-17T00:43:30;98783.91;;;3.39;88.98
14790;BME280;7486;51.010;10.366;2023-02-17T00:45:57;98792.09;;;3.54;87.59
14790;BME280;7486;51.010;10.366;2023-02-17T00:48:24;98788.09;;;3.59;86.49
14790;BME280;7486;51.010;10.366;2023-02-17T00:50:51;98793.34;;;3.59;87.21
14790;BME280;7486;51.010;10.366;2023-02-17T00:53:17;98790.94;;;3.66;86.53
14790;BME280;7486;51.010;10.366;2023-02-17T00:55:44;98712.56;;;3.10;86.25
14790;BME280;7486;51.010;10.366;2023-02-17T00:58:11;98780.03;;;3.43;86.66
14790;BME280;7486;51.010;10.366;2023-02-17T01:00:37;98791.78;;;3.39;86.95
14790;BME280;7486;51.010;10.366;2023-02-17T01:03:04;98794.13;;;3.42;87.19
14790;BME280;7486;51.010;10.366;2023-02-17T01:05:31;98794.88;;;3.25;87.67
14790;BME280;7486;51.010;10.366;2023-02-17T01:07:58;98781.81;;;3.15;87.91
14790;BME280;7486;51.010;10.366;2023-02-17T01:10:26;98802.41;;;3.38;88.28
14790;BME280;7486;51.010;10.366;2023-02-17T01:12:54;98796.38;;;3.28;87.50
14790;BME280;7486;51.010;10.366;2023-02-17T01:15:21;98791.69;;;3.31;88.58
14790;BME280;7486;51.010;10.366;2023-02-17T01:17:48;98798.66;;;3.40;88.37
14790;BME280;7486;51.010;10.366;2023-02-17T01:20:15;98796.66;;;3.25;89.14
14790;BME280;7486;51.010;10.366;2023-02-17T01:22:42;98787.03;;;3.25;89.28
14790;BME280;7486;51.010;10.366;2023-02-17T01:25:08;98783.28;;;3.28;88.83
14790;BME280;7486;51.010;10.366;2023-02-17T01:27:35;98783.41;;;3.26;88.34
14790;BME280;7486;51.010;10.366;2023-02-17T01:30:03;98783.28;;;3.28;88.84
14790;BME280;7486;51.010;10.366;2023-02-17T01:32:30;98779.72;;;3.29;88.21
14790;BME280;7486;51.010;10.366;2023-02-17T01:34:57;98774.97;;;3.05;90.41
14790;BME280;7486;51.010;10.366;2023-02-17T01:37:24;98759.59;;;2.92;90.35
14790;BME280;7486;51.010;10.366;2023-02-17T01:39:52;98762.03;;;3.03;91.18
14790;BME280;7486;51.010;10.366;2023-02-17T01:42:19;98737.31;;;2.88;91.75
14790;BME280;7486;51.010;10.366;2023-02-17T01:45:27;98756.81;;;3.03;92.24
14790;BME280;7486;51.010;10.366;2023-02-17T01:48:16;98756.56;;;2.97;92.31
14790;BME280;7486;51.010;10.366;2023-02-17T01:50:48;98757.69;;;2.85;92.75
14790;BME280;7486;51.010;10.366;2023-02-17T01:53:22;98749.31;;;2.91;93.16
14790;BME280;7486;51.010;10.366;2023-02-17T01:55:51;98744.25;;;3.07;93.13
14790;BME280;7486;51.010;10.366;2023-02-17T01:58:21;98750.41;;;3.15;91.97
14790;BME280;7486;51.010;10.366;2023-02-17T02:00:51;98724.56;;;3.03;92.41
14790;BME280;7486;51.010;10.366;2023-02-17T02:03:18;98723.41;;;3.15;92.21
14790;BME280;7486;51.010;10.366;2023-02-17T02:05:45;98682.59;;;2.95;92.15
14790;BME280;7486;51.010;10.366;2023-02-17T02:08:13;98718.97;;;3.25;92.67
14790;BME280;7486;51.010;10.366;2023-02-17T02:10:40;98719.06;;;3.33;91.69
14790;BME280;7486;51.010;10.366;2023-02-17T02:13:07;98720.28;;;3.39;92.06
14790;BME280;7486;51.010;10.366;2023-02-17T02:15:42;98708.09;;;3.20;91.94
14790;BME280;7486;51.010;10.366;2023-02-17T02:24:00;98712.13;;;3.42;92.17
14790;BME280;7486;51.010;10.366;2023-02-17T02:32:42;98694.91;;;3.12;95.25
14790;BME280;7486;51.010;10.366;2023-02-17T02:35:26;98687.66;;;3.24;94.75
14790;BME280;7486;51.010;10.366;2023-02-17T02:38:57;98692.25;;;3.22;94.83
14790;BME280;7486;51.010;10.366;2023-02-17T02:41:14;98682.34;;;3.15;94.39
14790;BME280;7486;51.010;10.366;2023-02-17T02:43:43;98681.44;;;3.34;94.81
14790;BME280;7486;51.010;10.366;2023-02-17T02:46:10;98675.41;;;3.24;95.75
14790;BME280;7486;51.010;10.366;2023-02-17T02:48:37;98672.69;;;3.43;94.61
14790;BME280;7486;51.010;10.366;2023-02-17T03:02:22;98643.31;;;3.22;97.13
14790;BME280;7486;51.010;10.366;2023-02-17T03:07:34;98637.63;;;3.27;97.32
14790;BME280;7486;51.010;10.366;2023-02-17T03:10:05;98637.97;;;3.41;97.33
14790;BME280;7486;51.010;10.366;2023-02-17T03:12:35;98632.34;;;3.36;97.14
14790;BME280;7486;51.010;10.366;2023-02-17T03:15:08;98624.44;;;3.28;98.04
14790;BME280;7486;51.010;10.366;2023-02-17T03:17:38;98609.78;;;3.35;98.47
14790;BME280;7486;51.010;10.366;2023-02-17T03:20:05;98620.25;;;3.35;98.30
14790;BME280;7486;51.010;10.366;2023-02-17T03:22:38;98621.22;;;3.34;98.95
14790;BME280;7486;51.010;10.366;2023-02-17T03:25:07;98614.31;;;3.33;99.32
14790;BME280;7486;51.010;10.366;2023-02-17T03:27:33;98616.38;;;3.12;100.00
14790;BME280;7486;51.010;10.366;2023-02-17T03:30:00;98614.81;;;3.19;100.00
14790;BME280;7486;51.010;10.366;2023-02-17T03:32:27;98604.34;;;3.19;100.00
14790;BME280;7486;51.010;10.366;2023-02-17T03:34:54;98602.63;;;3.28;100.00
14790;BME280;7486;51.010;10.366;2023-02-17T03:37:22;98605.63;;;3.50;99.84
14790;BME280;7486;51.010;10.366;2023-02-17T03:39:49;98599.44;;;3.51;98.37
14790;BME280;7486;51.010;10.366;2023-02-17T03:42:15;98593.56;;;3.57;98.02
14790;BME280;7486;51.010;10.366;2023-02-17T03:44:42;98590.66;;;3.60;98.23
14790;BME280;7486;51.010;10.366;2023-02-17T03:47:09;98573.78;;;3.37;99.31
14790;BME280;7486;51.010;10.366;2023-02-17T03:49:36;98567.03;;;3.17;99.23
14790;BME280;7486;51.010;10.366;2023-02-17T03:52:03;98589.41;;;3.29;100.00
14790;BME280;7486;51.010;10.366;2023-02-17T03:54:30;98601.94;;;3.35;100.00
14790;BME280;7486;51.010;10.366;2023-02-17T03:56:57;98597.41;;;3.28;100.00
14790;BME280;7486;51.010;10.366;2023-02-17T03:59:24;98605.84;;;3.39;100.00
14790;BME280;7486;51.010;10.366;2023-02-17T04:01:50;98587.31;;;3.50;99.44
14790;BME280;7486;51.010;10.366;2023-02-17T04:04:17;98574.16;;;3.42;98.32
14790;BME280;7486;51.010;10.366;2023-02-17T04:06:44;98611.38;;;3.72;98.99
14790;BME280;7486;51.010;10.366;2023-02-17T04:09:11;98616.78;;;3.96;97.98
14790;BME280;7486;51.010;10.366;2023-02-17T04:11:37;98618.44;;;4.05;95.49
14790;BME280;7486;51.010;10.366;2023-02-17T04:14:04;98623.59;;;4.14;95.21
14790;BME280;7486;51.010;10.366;2023-02-17T04:16:31;98628.03;;;4.14;95.12
14790;BME280;7486;51.010;10.366;2023-02-17T04:18:59;98608.16;;;4.11;95.09
14790;BME280;7486;51.010;10.366;2023-02-17T04:21:26;98618.28;;;4.32;93.92
14790;BME280;7486;51.010;10.366;2023-02-17T04:23:52;98621.59;;;4.34;93.93
14790;BME280;7486;51.010;10.366;2023-02-17T04:26:19;98622.50;;;4.25;93.92
14790;BME280;7486;51.010;10.366;2023-02-17T04:28:46;98609.63;;;4.06;94.71
14790;BME280;7486;51.010;10.366;2023-02-17T04:31:13;98568.09;;;3.68;95.99
14790;BME280;7486;51.010;10.366;2023-02-17T04:33:40;98601.66;;;3.90;96.78
14790;BME280;7486;51.010;10.366;2023-02-17T04:36:07;98618.78;;;4.02;97.53
14790;BME280;7486;51.010;10.366;2023-02-17T04:38:34;98566.88;;;3.80;96.10
14790;BME280;7486;51.010;10.366;2023-02-17T04:41:01;98585.72;;;4.09;95.99
14790;BME280;7486;51.010;10.366;2023-02-17T04:43:28;98605.41;;;4.13;96.07
14790;BME280;7486;51.010;10.366;2023-02-17T04:45:55;98585.47;;;4.20;95.60
14790;BME280;7486;51.010;10.366;2023-02-17T04:48:22;98564.13;;;4.15;95.15
14790;BME280;7486;51.010;10.366;2023-02-17T04:50:49;98591.09;;;4.33;94.74
14790;BME280;7486;51.010;10.366;2023-02-17T04:53:16;98550.16;;;3.81;96.49
14790;BME280;7486;51.010;10.366;2023-02-17T04:55:43;98587.94;;;3.96;96.91
14790;BME280;7486;51.010;10.366;2023-02-17T04:58:13;98582.63;;;3.80;99.19
14790;BME280;7486;51.010;10.366;2023-02-17T05:00:39;98583.13;;;3.83;100.00
14790;BME280;7486;51.010;10.366;2023-02-17T05:03:06;98581.06;;;3.95;99.00
14790;BME280;7486;51.010;10.366;2023-02-17T05:05:33;98577.88;;;3.83;99.64
14790;BME280;7486;51.010;10.366;2023-02-17T05:08:00;98566.97;;;3.96;98.98
14790;BME280;7486;51.010;10.366;2023-02-17T05:10:26;98578.03;;;4.07;98.60
14790;BME280;7486;51.010;10.366;2023-02-17T05:12:53;98575.22;;;4.09;98.08
14790;BME280;7486;51.010;10.366;2023-02-17T05:15:20;98568.06;;;4.19;97.16
14790;BME280;7486;51.010;10.366;2023-02-17T05:17:47;98557.97;;;4.32;95.90
14790;BME280;7486;51.010;10.366;2023-02-17T05:20:13;98572.13;;;4.47;95.72
14790;BME280;7486;51.010;10.366;2023-02-17T05:22:40;98567.38;;;4.51;95.68
14790;BME280;7486;51.010;10.366;2023-02-17T05:25:07;98556.47;;;4.30;95.17
14790;BME280;7486;51.010;10.366;2023-02-17T05:27:37;98551.69;;;4.25;95.45
14790;BME280;7486;51.010;10.366;2023-02-17T05:30:04;98564.66;;;4.27;96.16
14790;BME280;7486;51.010;10.366;2023-02-17T05:32:31;98576.56;;;4.13;97.50
14790;BME280;7486;51.010;10.366;2023-02-17T05:34:58;98580.84;;;4.14;98.35
14790;BME280;7486;51.010;10.366;2023-02-17T05:37:25;98570.34;;;4.14;97.54
14790;BME280;7486;51.010;10.366;2023-02-17T05:39:52;98570.75;;;4.27;97.01
14790;BME280;7486;51.010;10.366;2023-02-17T05:42:19;98570.63;;;4.37;96.97
14790;BME280;7486;51.010;10.366;2023-02-17T05:44:46;98550.88;;;4.16;96.85
14790;BME280;7486;51.010;10.366;2023-02-17T05:47:12;98579.44;;;4.36;96.73
14790;BME280;7486;51.010;10.366;2023-02-17T05:49:39;98560.13;;;4.37;95.01
14790;BME280;7486;51.010;10.366;2023-02-17T05:52:06;98574.34;;;4.26;96.06
14790;BME280;7486;51.010;10.366;2023-02-17T05:54:32;98557.13;;;4.24;96.78
14790;BME280;7486;51.010;10.366;2023-02-17T05:56:59;98571.66;;;4.52;95.50
14790;BME280;7486;51.010;10.366;2023-02-17T05:59:26;98573.56;;;4.42;96.03
14790;BME280;7486;51.010;10.366;2023-02-17T06:01:53;98565.19;;;4.30;96.86
14790;BME280;7486;51.010;10.366;2023-02-17T06:04:20;98571.50;;;4.53;95.97
14790;BME280;7486;51.010;10.366;2023-02-17T06:06:46;98554.41;;;4.41;95.36
14790;BME280;7486;51.010;10.366;2023-02-17T06:09:13;98570.84;;;4.51;96.23
14790;BME280;7486;51.010;10.366;2023-02-17T06:11:40;98574.28;;;4.60;94.96
14790;BME280;7486;51.010;10.366;2023-02-17T06:14:07;98578.38;;;4.54;95.31
14790;BME280;7486;51.010;10.366;2023-02-17T06:16:33;98548.75;;;4.28;95.43
14790;BME280;7486;51.010;10.366;2023-02-17T06:19:00;98568.69;;;4.47;96.03
14790;BME280;7486;51.010;10.366;2023-02-17T06:21:27;98525.88;;;4.38;94.61
14790;BME280;7486;51.010;10.366;2023-02-17T06:23:54;98572.00;;;4.57;94.75
14790;BME280;7486;51.010;10.366;2023-02-17T06:26:21;98576.19;;;4.42;95.70
14790;BME280;7486;51.010;10.366;2023-02-17T06:28:47;98570.97;;;4.50;95.79
14790;BME280;7486;51.010;10.366;2023-02-17T06:31:14;98552.81;;;4.48;95.52
14790;BME280;7486;51.010;10.366;2023-02-17T06:33:41;98556.72;;;4.52;95.54
14790;BME280;7486;51.010;10.366;2023-02-17T06:36:08;98550.69;;;4.60;94.44
14790;BME280;7486;51.010;10.366;2023-02-17T06:38:34;98555.28;;;4.66;94.44
14790;BME280;7486;51.010;10.366;2023-02-17T06:41:01;98561.19;;;4.52;94.61
14790;BME280;7486;51.010;10.366;2023-02-17T06:43:28;98561.97;;;4.52;94.74
14790;BME280;7486;51.010;10.366;2023-02-17T06:45:54;98561.19;;;4.60;94.97
14790;BME280;7486;51.010;10.366;2023-02-17T06:48:21;98562.50;;;4.64;94.89
14790;BME280;7486;51.010;10.366;2023-02-17T06:50:49;98555.09;;;4.59;94.35
14790;BME280;7486;51.010;10.366;2023-02-17T06:53:15;98566.28;;;4.61;94.51
14790;BME280;7486;51.010;10.366;2023-02-17T06:55:43;98559.72;;;4.74;94.31
14790;BME280;7486;51.010;10.366;2023-02-17T06:58:10;98512.44;;;4.41;93.82
14790;BME280;7486;51.010;10.366;2023-02-17T07:00:37;98573.50;;;4.67;94.36
14790;BME280;7486;51.010;10.366;2023-02-17T07:03:03;98562.72;;;4.87;93.37
14790;BME280;7486;51.010;10.366;2023-02-17T07:05:33;98562.72;;;4.87;93.57
14790;BME280;7486;51.010;10.366;2023-02-17T07:08:00;98511.66;;;4.57;93.96
14790;BME280;7486;51.010;10.366;2023-02-17T07:10:26;98540.69;;;4.63;93.58
14790;BME280;7486;51.010;10.366;2023-02-17T07:12:53;98566.97;;;4.80;94.54
14790;BME280;7486;51.010;10.366;2023-02-17T07:15:20;98571.25;;;4.89;94.01
14790;BME280;7486;51.010;10.366;2023-02-17T07:17:47;98560.41;;;4.76;94.03
14790;BME280;7486;51.010;10.366;2023-02-17T07:20:13;98564.53;;;4.94;93.26
14790;BME280;7486;51.010;10.366;2023-02-17T07:22:40;98560.59;;;4.90;92.97
14790;BME280;7486;51.010;10.366;2023-02-17T07:25:07;98582.44;;;4.99;92.60
14790;BME280;7486;51.010;10.366;2023-02-17T07:27:35;98579.31;;;5.03;92.55
14790;BME280;7486;51.010;10.366;2023-02-17T07:30:02;98590.97;;;4.93;92.88
14790;BME280;7486;51.010;10.366;2023-02-17T07:32:29;98573.72;;;4.82;92.90
14790;BME280;7486;51.010;10.366;2023-02-17T07:34:56;98604.88;;;4.85;93.30
14790;BME280;7486;51.010;10.366;2023-02-17T07:37:23;98576.19;;;4.92;93.66
14790;BME280;7486;51.010;10.366;2023-02-17T07:39:49;98577.50;;;4.96;93.38
14790;BME280;7486;51.010;10.366;2023-02-17T07:42:16;98571.44;;;5.03;93.10
14790;BME280;7486;51.010;10.366;2023-02-17T07:44:45;98568.66;;;5.05;92.33
14790;BME280;7486;51.010;10.366;2023-02-17T07:47:12;98562.13;;;5.25;91.69
14790;BME280;7486;51.010;10.366;2023-02-17T07:49:41;98538.94;;;5.04;91.60
14790;BME280;7486;51.010;10.366;2023-02-17T07:52:08;98556.25;;;5.23;91.64
14790;BME280;7486;51.010;10.366;2023-02-17T07:54:35;98547.19;;;5.17;91.36
14790;BME280;7486;51.010;10.366;2023-02-17T07:57:02;98541.75;;;5.11;91.05
14790;BME280;7486;51.010;10.366;2023-02-17T07:59:29;98525.66;;;4.98;92.26
14790;BME280;7486;51.010;10.366;2023-02-17T08:01:55;98542.75;;;5.10;92.57
14790;BME280;7486;51.010;10.366;2023-02-17T08:04:22;98550.63;;;5.10;92.65
14790;BME280;7486;51.010;10.366;2023-02-17T08:06:49;98549.94;;;5.08;92.83
14790;BME280;7486;51.010;10.366;2023-02-17T08:09:15;98535.50;;;5.04;91.92
14790;BME280;7486;51.010;10.366;2023-02-17T08:11:42;98532.53;;;5.07;92.06
14790;BME280;7486;51.010;10.366;2023-02-17T08:14:12;98533.72;;;5.12;92.51
14790;BME280;7486;51.010;10.366;2023-02-17T08:16:39;98545.06;;;5.21;91.81
14790;BME280;7486;51.010;10.366;2023-02-17T08:19:06;98546.72;;;5.22;91.56
14790;BME280;7486;51.010;10.366;2023-02-17T08:21:33;98533.22;;;5.09;92.24
14790;BME280;7486;51.010;10.366;2023-02-17T08:24:00;98529.97;;;5.15;91.97
14790;BME280;7486;51.010;10.366;2023-02-17T08:26:26;98521.44;;;5.29;91.07
14790;BME280;7486;51.010;10.366;2023-02-17T08:28:54;98536.34;;;5.45;90.82
14790;BME280;7486;51.010;10.366;2023-02-17T08:31:26;98538.16;;;5.52;89.66
14790;BME280;7486;51.010;10.366;2023-02-17T08:33:54;98536.50;;;5.51;89.27
14790;BME280;7486;51.010;10.366;2023-02-17T08:36:22;98501.22;;;5.13;88.86
14790;BME280;7486;51.010;10.366;2023-02-17T08:38:51;98521.59;;;5.20;90.27
14790;BME280;7486;51.010;10.366;2023-02-17T08:43:47;98528.66;;;5.43;89.76
14790;BME280;7486;51.010;10.366;2023-02-17T08:46:15;98528.31;;;5.54;89.62
14790;BME280;7486;51.010;10.366;2023-02-17T08:48:42;98526.47;;;5.63;88.71
14790;BME280;7486;51.010;10.366;2023-02-17T08:51:18;98529.59;;;5.58;88.68
14790;BME280;7486;51.010;10.366;2023-02-17T08:53:45;98513.88;;;5.50;88.86
14790;BME280;7486;51.010;10.366;2023-02-17T08:56:12;98529.63;;;5.50;89.20
14790;BME280;7486;51.010;10.366;2023-02-17T08:58:38;98529.94;;;5.55;89.32
14790;BME280;7486;51.010;10.366;2023-02-17T09:01:05;98525.03;;;5.60;88.48
14790;BME280;7486;51.010;10.366;2023-02-17T09:03:34;98528.47;;;5.61;88.65
14790;BME280;7486;51.010;10.366;2023-02-17T09:06:01;98537.00;;;5.55;88.81
14790;BME280;7486;51.010;10.366;2023-02-17T09:08:27;98521.91;;;5.65;88.90
14790;BME280;7486;51.010;10.366;2023-02-17T09:10:54;98498.75;;;5.52;88.65
14790;BME280;7486;51.010;10.366;2023-02-17T09:13:21;98522.19;;;5.78;88.69
14790;BME280;7486;51.010;10.366;2023-02-17T09:15:48;98504.56;;;5.87;87.29
14790;BME280;7486;51.010;10.366;2023-02-17T09:18:15;98513.31;;;5.79;87.69
14790;BME280;7486;51.010;10.366;2023-02-17T09:20:41;98507.59;;;5.59;88.98
14790;BME280;7486;51.010;10.366;2023-02-17T09:23:08;98517.28;;;5.59;89.81
14790;BME280;7486;51.010;10.366;2023-02-17T09:25:35;98496.91;;;5.69;89.36
14790;BME280;7486;51.010;10.366;2023-02-17T09:28:01;98505.78;;;5.68;89.34
14790;BME280;7486;51.010;10.366;2023-02-17T09:30:29;98511.53;;;5.72;89.37
14790;BME280;7486;51.010;10.366;2023-02-17T09:32:56;98501.66;;;5.65;89.51
14790;BME280;7486;51.010;10.366;2023-02-17T09:35:24;98504.81;;;5.53;90.74
14790;BME280;7486;51.010;10.366;2023-02-17T09:37:51;98469.34;;;5.49;89.57
14790;BME280;7486;51.010;10.366;2023-02-17T09:40:24;98471.50;;;5.53;90.08
14790;BME280;7486;51.010;10.366;2023-02-17T09:42:56;98508.50;;;5.99;89.06
14790;BME280;7486;51.010;10.366;2023-02-17T09:45:31;98511.97;;;5.91;89.12
14790;BME280;7486;51.010;10.366;2023-02-17T09:48:04;98486.56;;;5.59;90.19
14790;BME280;7486;51.010;10.366;2023-02-17T09:55:40;98515.09;;;5.87;90.26
14790;BME280;7486;51.010;10.366;2023-02-17T10:00:56;98519.09;;;6.22;88.44
14790;BME280;7486;51.010;10.366;2023-02-17T10:03:29;98509.59;;;6.12;88.69
14790;BME280;7486;51.010;10.366;2023-02-17T10:06:09;98504.72;;;5.93;90.15
14790;BME280;7486;51.010;10.366;2023-02-17T10:11:34;98514.47;;;6.24;88.90
14790;BME280;7486;51.010;10.366;2023-02-17T10:14:09;98480.69;;;6.04;89.03
14790;BME280;7486;51.010;10.366;2023-02-17T10:16:44;98484.44;;;6.10;89.10
14790;BME280;7486;51.010;10.366;2023-02-17T10:21:57;98487.41;;;6.07;90.62
14790;BME280;7486;51.010;10.366;2023-02-17T10:24:28;98478.56;;;6.00;90.06
14790;BME280;7486;51.010;10.366;2023-02-17T10:32:27;98485.81;;;6.37;89.06
14790;BME280;7486;51.010;10.366;2023-02-17T10:40:19;98501.50;;;6.22;90.26
14790;BME280;7486;51.010;10.366;2023-02-17T10:42:48;98495.44;;;6.13;90.76
14790;BME280;7486;51.010;10.366;2023-02-17T10:45:29;98505.13;;;6.13;91.39
14790;BME280;7486;51.010;10.366;2023-02-17T10:48:02;98493.28;;;6.17;90.76
14790;BME280;7486;51.010;10.366;2023-02-17T10:50:31;98492.66;;;6.15;91.19
14790;BME280;7486;51.010;10.366;2023-02-17T10:52:58;98494.56;;;6.29;90.86
14790;BME280;7486;51.010;10.366;2023-02-17T10:55:40;98489.31;;;6.29;90.31
14790;BME280;7486;51.010;10.366;2023-02-17T11:00:52;98477.47;;;6.25;90.67
14790;BME280;7486;51.010;10.366;2023-02-17T11:03:20;98494.91;;;6.26;90.87
14790;BME280;7486;51.010;10.366;2023-02-17T11:05:58;98477.16;;;6.20;91.45
14790;BME280;7486;51.010;10.366;2023-02-17T11:11:22;98469.84;;;6.38;90.89
14790;BME280;7486;51.010;10.366;2023-02-17T11:16:24;98459.97;;;6.40;89.89
14790;BME280;7486;51.010;10.366;2023-02-17T11:18:52;98477.16;;;6.51;90.35
14790;BME280;7486;51.010;10.366;2023-02-17T11:21:20;98484.25;;;6.50;89.64
14790;BME280;7486;51.010;10.366;2023-02-17T11:24:03;98473.41;;;6.45;90.24
14790;BME280;7486;51.010;10.366;2023-02-17T11:26:34;98485.41;;;6.48;90.23
14790;BME280;7486;51.010;10.366;2023-02-17T11:31:36;98485.78;;;6.67;90.38
14790;BME280;7486;51.010;10.366;2023-02-17T11:34:11;98467.53;;;6.74;89.25
14790;BME280;7486;51.010;10.366;2023-02-17T11:36:38;98489.41;;;6.75;89.54
14790;BME280;7486;51.010;10.366;2023-02-17T11:39:19;98491.69;;;6.69;89.77
14790;BME280;7486;51.010;10.366;2023-02-17T11:41:47;98486.28;;;6.94;89.64
14790;BME280;7486;51.010;10.366;2023-02-17T11:44:27;98456.56;;;7.08;87.93
14790;BME280;7486;51.010;10.366;2023-02-17T11:52:35;98436.88;;;6.81;89.84
14790;BME280;7486;51.010;10.366;2023-02-17T11:58:22;98420.84;;;7.05;89.23
14790;BME280;7486;51.010;10.366;2023-02-17T12:12:35;98395.81;;;7.24;87.89
14790;BME280;7486;51.010;10.366;2023-02-17T12:17:58;98367.66;;;7.25;88.07
14790;BME280;7486;51.010;10.366;2023-02-17T12:20:35;98377.09;;;7.34;87.39
14790;BME280;7486;51.010;10.366;2023-02-17T12:36:50;98362.78;;;7.87;85.21
14790;BME280;7486;51.010;10.366;2023-02-17T12:39:40;98352.94;;;8.10;84.36
14790;BME280;7486;51.010;10.366;2023-02-17T12:42:52;98356.47;;;7.88;84.90
14790;BME280;7486;51.010;10.366;2023-02-17T12:45:24;98347.66;;;7.95;85.45
14790;BME280;7486;51.010;10.366;2023-02-17T12:47:56;98358.69;;;7.84;85.46
14790;BME280;7486;51.010;10.366;2023-02-17T12:50:40;98347.47;;;7.97;85.33
14790;BME280;7486;51.010;10.366;2023-02-17T12:53:38;98347.94;;;8.00;84.82
14790;BME280;7486;51.010;10.366;2023-02-17T12:56:13;98353.44;;;8.05;84.41
14790;BME280;7486;51.010;10.366;2023-02-17T12:58:45;98337.53;;;8.13;84.22
14790;BME280;7486;51.010;10.366;2023-02-17T13:01:16;98333.53;;;8.03;84.23
14790;BME280;7486;51.010;10.366;2023-02-17T13:03:44;98333.31;;;8.19;84.25
14790;BME280;7486;51.010;10.366;2023-02-17T13:06:35;98325.16;;;8.14;84.38
14790;BME280;7486;51.010;10.366;2023-02-17T13:14:50;98320.72;;;8.14;84.11
14790;BME280;7486;51.010;10.366;2023-02-17T13:22:38;98288.03;;;8.37;83.43
14790;BME280;7486;51.010;10.366;2023-02-17T13:25:06;98282.75;;;8.37;83.12
14790;BME280;7486;51.010;10.366;2023-02-17T13:27:34;98296.34;;;8.61;82.68
14790;BME280;7486;51.010;10.366;2023-02-17T13:33:06;98296.41;;;8.96;81.72
14790;BME280;7486;51.010;10.366;2023-02-17T13:35:40;98296.94;;;8.85;81.56
14790;BME280;7486;51.010;10.366;2023-02-17T13:38:08;98260.25;;;8.68;80.92
14790;BME280;7486;51.010;10.366;2023-02-17T13:40:40;98282.78;;;8.99;81.40
14790;BME280;7486;51.010;10.366;2023-02-17T13:43:09;98279.72;;;8.95;81.24
14790;BME280;7486;51.010;10.366;2023-02-17T13:48:28;98277.91;;;8.96;80.94
14790;BME280;7486;51.010;10.366;2023-02-17T13:53:38;98260.47;;;9.08;80.31
14790;BME280;7486;51.010;10.366;2023-02-17T13:56:22;98260.22;;;8.96;80.83
14790;BME280;7486;51.010;10.366;2023-02-17T13:58:49;98263.22;;;8.87;81.70
14790;BME280;7486;51.010;10.366;2023-02-17T14:01:26;98246.31;;;8.81;81.20
14790;BME280;7486;51.010;10.366;2023-02-17T14:03:55;98255.38;;;9.00;81.00
14790;BME280;7486;51.010;10.366;2023-02-17T14:06:37;98237.00;;;8.85;80.88
14790;BME280;7486;51.010;10.366;2023-02-17T14:09:13;98242.00;;;8.73;81.26
14790;BME280;7486;51.010;10.366;2023-02-17T14:11:44;98244.88;;;8.79;81.40
14790;BME280;7486;51.010;10.366;2023-02-17T14:14:11;98259.91;;;8.78;81.34
14790;BME280;7486;51.010;10.366;2023-02-17T14:16:40;98265.41;;;8.77;81.09
14790;BME280;7486;51.010;10.366;2023-02-17T14:19:11;98264.84;;;8.88;81.11
14790;BME280;7486;51.010;10.366;2023-02-17T14:21:41;98267.31;;;8.89;81.02
14790;BME280;7486;51.010;10.366;2023-02-17T14:24:34;98265.66;;;8.88;80.79
14790;BME280;7486;51.010;10.366;2023-02-17T14:27:03;98268.25;;;8.82;81.04
14790;BME280;7486;51.010;10.366;2023-02-17T14:29:43;98266.88;;;8.86;81.02
14790;BME280;7486;51.010;10.366;2023-02-17T14:32:46;98273.22;;;8.98;80.28
14790;BME280;7486;51.010;10.366;2023-02-17T14:37:40;98277.41;;;9.13;79.44
14790;BME280;7486;51.010;10.366;2023-02-17T14:40:19;98286.66;;;8.96;79.93
14790;BME280;7486;51.010;10.366;2023-02-17T14:42:46;98222.47;;;8.68;80.41
14790;BME280;7486;51.010;10.366;2023-02-17T14:45:13;98226.19;;;8.80;80.32
14790;BME280;7486;51.010;10.366;2023-02-17T14:47:41;98273.25;;;9.04;80.17
14790;BME280;7486;51.010;10.366;2023-02-17T14:50:08;98275.56;;;9.14;80.11
14790;BME280;7486;51.010;10.366;2023-02-17T14:52:42;98282.78;;;8.99;80.48
14790;BME280;7486;51.010;10.366;2023-02-17T14:55:27;98262.56;;;9.19;79.53
14790;BME280;7486;51.010;10.366;2023-02-17T14:57:55;98260.88;;;9.05;79.81
14790;BME280;7486;51.010;10.366;2023-02-17T15:00:22;98275.22;;;9.23;79.29
14790;BME280;7486;51.010;10.366;2023-02-17T15:02:48;98283.41;;;9.35;78.97
14790;BME280;7486;51.010;10.366;2023-02-17T15:05:15;98222.28;;;9.04;78.62
14790;BME280;7486;51.010;10.366;2023-02-17T15:07:42;98259.00;;;9.33;78.51
14790;BME280;7486;51.010;10.366;2023-02-17T15:10:25;98268.38;;;9.36;78.81
14790;BME280;7486;51.010;10.366;2023-02-17T15:12:52;98262.22;;;9.29;78.51
14790;BME280;7486;51.010;10.366;2023-02-17T15:15:19;98262.91;;;9.37;78.63
14790;BME280;7486;51.010;10.366;2023-02-17T15:17:47;98254.06;;;9.23;78.59
14790;BME280;7486;51.010;10.366;2023-02-17T15:20:15;98250.22;;;9.26;78.69
14790;BME280;7486;51.010;10.366;2023-02-17T15:22:42;98250.22;;;9.26;78.76
14790;BME280;7486;51.010;10.366;2023-02-17T15:25:19;98223.50;;;9.08;79.59
14790;BME280;7486;51.010;10.366;2023-02-17T15:27:47;98224.69;;;9.05;80.17